Time;durP1;ratioP1;P1;durP2;ratioP2;P2;SDS_P1;SDS_P2;PMS_P1;PMS_P2;Temp;Humidity;BMP_temperature;BMP_pressure;BME280_temperature;BME280_humidity;BME280_pressure;Samples;Min_cycle;Max_cycle;Signal;HPM_P1;HPM_P2
2022/04/16 00:00:50;;;;;;;;;21.75;20.25;;;;;15.52;56.88;102430.53;5072330;27;48305;-68
2022/04/16 00:03:16;;;;;;;;;23.75;20.25;;;;;15.56;57.38;102422.94;5065378;28;45315;-68
2022/04/16 00:05:41;;;;;;;;;25.67;22.67;;;;;15.50;57.28;102429.78;5072435;28;45423;-69
2022/04/16 00:08:07;;;;;;;;;19.33;18.67;;;;;15.51;57.21;102430.66;5065264;28;47276;-69
2022/04/16 00:10:33;;;;;;;;;22.67;17.33;;;;;15.53;57.22;102418.59;5081024;28;45316;-69
2022/04/16 00:12:59;;;;;;;;;26.25;23.25;;;;;15.34;57.99;102423.13;5066381;27;45321;-69
2022/04/16 00:15:26;;;;;;;;;19.67;19.67;;;;;15.34;58.45;102418.47;5067754;28;45523;-68
2022/04/16 00:17:52;;;;;;;;;23.75;18.75;;;;;15.35;58.26;102425.69;5080662;28;46353;-69
2022/04/16 00:20:17;;;;;;;;;24.00;22.00;;;;;15.32;58.24;102422.38;5078962;27;45475;-68
2022/04/16 00:22:43;;;;;;;;;18.33;17.67;;;;;15.35;58.07;102414.75;5077215;28;45409;-68
2022/04/16 00:25:08;;;;;;;;;21.67;19.33;;;;;15.32;58.26;102415.03;5070427;28;45322;-67
2022/04/16 00:27:34;;;;;;;;;20.67;19.67;;;;;15.27;57.97;102411.81;5078400;27;45477;-68
2022/04/16 00:30:01;;;;;;;;;24.33;22.67;;;;;15.34;58.18;102414.91;5087550;27;45378;-68
2022/04/16 00:32:27;;;;;;;;;23.00;19.67;;;;;15.25;58.60;102410.25;5065553;28;45327;-68
2022/04/16 00:34:53;;;;;;;;;24.00;20.67;;;;;15.16;58.73;102409.19;5069659;28;45251;-67
2022/04/16 00:37:18;;;;;;;;;23.67;19.67;;;;;15.17;58.60;102411.81;5073110;27;47196;-67
2022/04/16 00:39:43;;;;;;;;;23.50;20.75;;;;;15.11;59.20;102416.97;5071406;28;45419;-68
2022/04/16 00:42:09;;;;;;;;;21.00;20.50;;;;;15.09;59.14;102408.03;5074027;28;45480;-68
2022/04/16 00:44:34;;;;;;;;;21.25;18.00;;;;;15.08;58.47;102412.63;5073043;28;45515;-69
2022/04/16 00:46:59;;;;;;;;;26.75;23.25;;;;;15.00;59.61;102409.69;5072922;28;46654;-68
2022/04/16 00:49:25;;;;;;;;;25.00;22.25;;;;;14.95;59.63;102411.13;5072631;28;45372;-68
2022/04/16 00:51:51;;;;;;;;;25.00;21.00;;;;;14.89;60.05;102411.69;5082398;28;45263;-68
2022/04/16 00:54:18;;;;;;;;;25.75;20.75;;;;;14.92;59.65;102400.44;5085752;27;45317;-68
2022/04/16 00:56:44;;;;;;;;;28.00;25.75;;;;;14.85;59.79;102397.38;5072242;28;45288;-69
2022/04/16 00:59:09;;;;;;;;;27.25;25.75;;;;;14.87;59.91;102405.47;5074034;28;45414;-68
2022/04/16 01:01:35;;;;;;;;;22.33;20.00;;;;;14.85;59.99;102407.47;5078229;28;45535;-68
2022/04/16 01:04:01;;;;;;;;;24.75;24.25;;;;;14.75;60.25;102407.44;5065612;28;45257;-68
2022/04/16 01:06:37;;;;;;;;;24.50;22.00;;;;;14.71;60.46;102405.94;5077771;28;45421;-68
2022/04/16 01:09:03;;;;;;;;;25.75;23.25;;;;;14.71;60.32;102406.81;5065378;28;45348;-68
2022/04/16 01:11:28;;;;;;;;;25.00;23.00;;;;;14.68;60.55;102398.03;5079574;27;45223;-68
2022/04/16 01:13:53;;;;;;;;;25.25;23.25;;;;;14.64;60.54;102397.41;5081597;28;45432;-68
2022/04/16 01:16:19;;;;;;;;;23.75;23.00;;;;;14.59;60.61;102391.50;5078880;28;46434;-68
2022/04/16 01:18:48;;;;;;;;;29.50;25.50;;;;;14.60;60.65;102397.84;5073496;28;46198;-69
2022/04/16 01:21:14;;;;;;;;;27.25;26.50;;;;;14.43;61.17;102387.50;5078788;28;45420;-68
2022/04/16 01:23:39;;;;;;;;;25.00;22.75;;;;;14.40;61.51;102397.69;5073747;28;45240;-68
2022/04/16 01:26:05;;;;;;;;;28.00;27.00;;;;;14.39;61.19;102400.56;5077290;28;45863;-69
2022/04/16 01:28:30;;;;;;;;;27.75;22.50;;;;;14.32;61.41;102391.97;5084334;27;45223;-69
2022/04/16 01:30:56;;;;;;;;;24.50;23.25;;;;;14.33;61.36;102403.78;5082248;27;45148;-69
2022/04/16 01:33:22;;;;;;;;;26.75;25.00;;;;;14.35;61.71;102404.53;5073389;28;45223;-68
2022/04/16 01:35:53;;;;;;;;;24.25;23.00;;;;;14.31;61.90;102412.13;5073369;28;47278;-69
2022/04/16 01:38:19;;;;;;;;;23.25;21.25;;;;;14.37;61.24;102399.81;5070756;28;45672;-68
2022/04/16 01:40:44;;;;;;;;;23.50;22.25;;;;;14.40;61.28;102407.75;5067151;28;45503;-68
2022/04/16 01:43:09;;;;;;;;;26.25;24.50;;;;;14.36;61.24;102406.25;5071326;28;45440;-68
2022/04/16 01:45:35;;;;;;;;;24.00;19.00;;;;;14.36;61.70;102409.88;5073019;28;45379;-68
2022/04/16 01:48:01;;;;;;;;;32.25;26.75;;;;;14.23;61.89;102406.47;5069337;28;45408;-68
2022/04/16 01:50:26;;;;;;;;;27.00;25.00;;;;;14.12;62.67;102403.75;5071857;28;45313;-69
2022/04/16 01:52:52;;;;;;;;;23.75;21.00;;;;;14.11;62.35;102401.16;5068794;28;45412;-68
2022/04/16 01:55:17;;;;;;;;;24.75;22.50;;;;;14.10;62.57;102402.19;5070268;28;45576;-69
2022/04/16 01:57:43;;;;;;;;;22.50;22.25;;;;;13.95;62.98;102399.72;5065002;28;45340;-69
2022/04/16 02:00:11;;;;;;;;;26.75;25.00;;;;;13.98;62.92;102415.00;5084979;27;45390;-68
2022/04/16 02:02:37;;;;;;;;;12.25;10.50;;;;;13.97;62.85;102414.13;5066410;28;45397;-71
2022/04/16 02:05:06;;;;;;;;;21.00;19.00;;;;;13.92;62.60;102410.06;5067929;28;45412;-68
2022/04/16 02:07:31;;;;;;;;;26.50;25.75;;;;;13.92;63.20;102412.81;5073246;27;45244;-68
2022/04/16 02:09:57;;;;;;;;;21.00;19.25;;;;;13.90;62.87;102415.66;5070458;28;45498;-68
2022/04/16 02:12:22;;;;;;;;;24.50;21.75;;;;;13.83;63.15;102403.50;5074218;28;45387;-68
2022/04/16 02:14:48;;;;;;;;;21.00;21.00;;;;;13.76;63.55;102402.28;5067822;28;45398;-68
2022/04/16 02:17:13;;;;;;;;;25.50;21.75;;;;;13.61;63.57;102396.25;5073084;28;45160;-68
2022/04/16 02:19:39;;;;;;;;;26.50;22.25;;;;;13.63;63.68;102404.31;5067895;28;45366;-68
2022/04/16 02:22:05;;;;;;;;;21.25;20.50;;;;;13.62;63.70;102399.84;5080603;27;45473;-68
2022/04/16 02:24:30;;;;;;;;;24.00;21.00;;;;;13.58;64.28;102401.13;5068723;28;48180;-68
2022/04/16 02:26:57;;;;;;;;;22.75;20.50;;;;;13.62;63.63;102408.03;5080369;27;45259;-68
2022/04/16 02:29:22;;;;;;;;;24.67;19.67;;;;;13.48;64.46;102400.13;5095372;27;45319;-68
2022/04/16 02:31:48;;;;;;;;;27.00;22.75;;;;;13.48;64.22;102411.91;5079255;27;45378;-68
2022/04/16 02:34:14;;;;;;;;;27.75;25.75;;;;;13.47;64.85;102406.59;5067659;28;46725;-68
2022/04/16 02:36:40;;;;;;;;;24.00;21.00;;;;;13.50;64.34;102401.75;5076131;28;45833;-68
2022/04/16 02:39:08;;;;;;;;;26.25;20.50;;;;;13.45;64.74;102412.16;5066272;28;45865;-68
2022/04/16 02:41:34;;;;;;;;;24.75;23.00;;;;;13.39;64.99;102406.34;5073099;28;45402;-68
2022/04/16 02:43:59;;;;;;;;;28.00;22.75;;;;;13.25;64.58;102408.34;5063812;28;46265;-68
2022/04/16 02:49:10;;;;;;;;;23.75;21.25;;;;;13.26;65.04;102417.41;5070304;28;45282;-68
2022/04/16 02:51:35;;;;;;;;;30.75;28.25;;;;;13.18;65.43;102426.22;5073571;27;45576;-68
2022/04/16 02:54:01;;;;;;;;;20.75;16.50;;;;;13.21;65.44;102419.66;5063707;28;45564;-68
2022/04/16 02:56:26;;;;;;;;;23.50;21.25;;;;;13.24;65.17;102414.81;5078653;28;45242;-68
2022/04/16 02:58:51;;;;;;;;;28.50;23.75;;;;;13.28;65.22;102409.97;5063944;28;45409;-69
2022/04/16 03:01:17;;;;;;;;;34.00;25.50;;;;;13.21;65.32;102411.47;5069166;28;45876;-69
2022/04/16 03:03:43;;;;;;;;;22.00;21.00;;;;;13.16;65.30;102409.09;5065749;28;48189;-68
2022/04/16 03:06:09;;;;;;;;;27.25;25.50;;;;;13.18;65.17;102409.84;5078489;28;45377;-69
2022/04/16 03:08:35;;;;;;;;;21.00;19.00;;;;;13.17;64.60;102402.66;5077210;28;45392;-68
2022/04/16 03:11:00;;;;;;;;;31.75;25.75;;;;;13.13;65.49;102398.44;5072734;28;45569;-68
2022/04/16 03:13:26;;;;;;;;;27.75;24.75;;;;;13.14;65.39;102402.91;5063403;28;46372;-68
2022/04/16 03:18:35;;;;;;;;;31.25;25.00;;;;;12.92;65.59;102411.06;5074701;28;45257;-68
2022/04/16 03:21:01;;;;;;;;;33.25;28.50;;;;;12.86;65.87;102414.25;5077404;28;45330;-68
2022/04/16 03:23:27;;;;;;;;;29.75;26.50;;;;;12.95;66.35;102413.53;5063144;28;45520;-68
2022/04/16 03:25:58;;;;;;;;;37.00;31.00;;;;;12.92;65.90;102408.34;5074455;28;45729;-68
2022/04/16 03:28:24;;;;;;;;;35.00;28.50;;;;;12.93;65.72;102412.78;5080427;27;45286;-68
2022/04/16 03:30:49;;;;;;;;;37.25;34.00;;;;;12.85;65.89;102402.50;5084530;27;45456;-68
2022/04/16 03:33:14;;;;;;;;;39.50;33.25;;;;;12.79;66.33;102402.09;5071405;28;45539;-68
2022/04/16 03:35:40;;;;;;;;;32.25;29.25;;;;;12.80;66.28;102415.63;5074042;28;45477;-68
2022/04/16 03:38:05;;;;;;;;;42.25;32.25;;;;;12.80;66.28;102412.03;5070624;28;45732;-69
2022/04/16 03:40:31;;;;;;;;;34.75;31.75;;;;;12.83;66.20;102414.53;5074595;28;45434;-69
2022/04/16 03:43:01;;;;;;;;;34.75;32.75;;;;;12.83;66.19;102414.53;5062861;28;45581;-69
2022/04/16 03:45:29;;;;;;;;;27.75;23.75;;;;;12.80;65.88;102414.75;5070872;28;45462;-69
2022/04/16 03:47:56;;;;;;;;;36.25;34.00;;;;;12.85;65.96;102407.09;5066084;28;45445;-67
2022/04/16 03:50:23;;;;;;;;;36.00;32.25;;;;;12.81;65.83;102411.03;5069864;28;45516;-67
2022/04/16 03:52:51;;;;;;;;;33.25;29.25;;;;;12.86;65.94;102408.81;5066296;28;45447;-67
2022/04/16 04:00:52;;;;;;;;;40.50;33.25;;;;;12.83;65.77;102401.75;5075554;28;45209;-68
2022/04/16 04:03:18;;;;;;;;;41.75;32.50;;;;;12.79;65.66;102408.44;5064588;28;45452;-67
2022/04/16 04:05:53;;;;;;;;;39.75;33.25;;;;;12.72;66.10;102398.13;5074037;28;45328;-68
2022/04/16 04:08:19;;;;;;;;;36.00;32.25;;;;;12.68;66.64;102415.75;5064723;28;45291;-69
2022/04/16 04:10:46;;;;;;;;;38.50;35.75;;;;;12.62;66.16;102406.19;5074439;28;45512;-68
2022/04/16 04:13:12;;;;;;;;;36.50;34.75;;;;;12.55;66.55;102409.53;5063446;28;46274;-68
2022/04/16 04:15:37;;;;;;;;;40.00;34.25;;;;;12.49;67.25;102417.19;5072140;28;45366;-67
2022/04/16 04:18:03;;;;;;;;;40.75;35.50;;;;;12.46;66.99;102411.97;5075045;27;45322;-67
2022/04/16 04:20:29;;;;;;;;;42.25;35.00;;;;;12.32;67.12;102403.16;5073557;28;45493;-69
2022/04/16 04:22:55;;;;;;;;;40.00;32.50;;;;;12.41;67.29;102416.06;5063780;28;45957;-67
2022/04/16 04:25:20;;;;;;;;;46.00;36.25;;;;;12.40;67.28;102414.31;5072233;28;45422;-67
2022/04/16 04:27:46;;;;;;;;;37.25;31.25;;;;;12.27;67.75;102422.56;5079580;27;45320;-67
2022/04/16 04:30:12;;;;;;;;;48.00;37.25;;;;;12.29;67.97;102422.44;5089316;27;45425;-67
2022/04/16 04:32:38;;;;;;;;;46.75;35.25;;;;;12.29;67.68;102426.03;5062740;28;46275;-68
2022/04/16 04:35:05;;;;;;;;;33.75;32.00;;;;;12.27;68.00;102432.63;5072682;28;45251;-68
2022/04/16 04:37:30;;;;;;;;;34.50;33.50;;;;;12.30;67.65;102425.06;5069673;27;45448;-68
2022/04/16 04:39:55;;;;;;;;;40.00;32.00;;;;;12.27;67.26;102422.56;5069101;28;45313;-68
2022/04/16 04:42:26;;;;;;;;;37.00;30.50;;;;;12.36;67.24;102429.16;5066709;28;47233;-68
2022/04/16 04:44:52;;;;;;;;;36.75;31.25;;;;;12.32;66.50;102417.63;5068848;28;45226;-68
2022/04/16 04:47:17;;;;;;;;;51.25;37.00;;;;;12.30;67.21;102425.06;5073639;28;45298;-68
2022/04/16 04:49:42;;;;;;;;;38.00;31.25;;;;;12.30;66.62;102429.63;5066109;28;45318;-68
2022/04/16 04:52:08;;;;;;;;;33.25;31.00;;;;;12.22;67.08;102421.19;5065517;28;45342;-68
2022/04/16 04:54:33;;;;;;;;;42.75;34.25;;;;;12.24;66.50;102431.00;5065607;28;45446;-68
2022/04/16 04:56:58;;;;;;;;;45.00;37.75;;;;;12.20;67.01;102425.91;5072055;28;45287;-68
2022/04/16 04:59:24;;;;;;;;;44.75;35.00;;;;;12.09;67.64;102419.41;5063153;28;45426;-68
2022/04/16 05:01:49;;;;;;;;;36.50;34.50;;;;;12.09;67.27;102426.72;5063991;27;45471;-68
2022/04/16 05:04:14;;;;;;;;;42.00;34.50;;;;;12.06;67.68;102429.66;5062495;28;45425;-68
2022/04/16 05:06:40;;;;;;;;;40.00;35.00;;;;;12.03;68.19;102435.38;5071525;28;45501;-68
2022/04/16 05:09:05;;;;;;;;;35.25;32.25;;;;;11.99;67.95;102428.38;5061765;28;45420;-68
2022/04/16 05:11:30;;;;;;;;;42.50;35.00;;;;;12.04;68.05;102437.97;5076897;28;46683;-68
2022/04/16 05:13:56;;;;;;;;;48.50;34.25;;;;;12.11;67.89;102438.38;5061942;28;45330;-69
2022/04/16 05:16:21;;;;;;;;;44.25;35.75;;;;;12.15;66.85;102437.13;5074146;28;45423;-67
2022/04/16 05:18:46;;;;;;;;;42.75;35.25;;;;;12.13;67.43;102451.88;5063872;28;45472;-67
2022/04/16 05:21:12;;;;;;;;;44.75;33.50;;;;;12.10;67.22;102447.53;5073721;28;45476;-67
2022/04/16 05:23:39;;;;;;;;;49.50;37.25;;;;;12.16;67.59;102451.63;5073147;27;45479;-68
2022/04/16 05:26:06;;;;;;;;;50.00;40.00;;;;;12.03;68.17;102459.88;5076592;28;45448;-67
2022/04/16 05:28:32;;;;;;;;;48.50;38.00;;;;;12.07;67.59;102475.00;5091809;27;45445;-67
2022/04/16 05:30:58;;;;;;;;;52.75;39.50;;;;;11.97;68.30;102457.63;5080224;27;45461;-67
2022/04/16 05:36:08;;;;;;;;;53.25;39.75;;;;;11.98;68.49;102462.09;5074418;28;45325;-67
2022/04/16 05:38:34;;;;;;;;;42.00;36.50;;;;;11.90;68.82;102464.53;5071468;28;45298;-67
2022/04/16 05:41:00;;;;;;;;;51.25;41.00;;;;;11.62;69.09;102463.78;5073121;28;45503;-67
2022/04/16 05:43:25;;;;;;;;;39.00;31.00;;;;;11.75;69.06;102482.88;5070078;28;45442;-69
2022/04/16 05:45:51;;;;;;;;;50.50;38.50;;;;;11.85;68.85;102473.00;5072336;28;45269;-67
2022/04/16 05:48:17;;;;;;;;;50.50;37.75;;;;;11.85;68.54;102478.47;5064184;28;45382;-68
2022/04/16 05:50:42;;;;;;;;;48.50;37.00;;;;;11.96;68.33;102484.00;5075705;28;46332;-69
2022/04/16 05:53:10;;;;;;;;;54.75;41.00;;;;;12.03;68.07;102484.41;5071833;28;45394;-69
2022/04/16 05:55:36;;;;;;;;;41.75;35.00;;;;;12.02;68.05;102483.53;5079092;28;45270;-69
2022/04/16 05:58:01;;;;;;;;;35.75;30.25;;;;;12.15;67.34;102485.31;5077074;28;45298;-69
2022/04/16 06:00:28;;;;;;;;;45.25;38.75;;;;;12.21;66.90;102483.00;5068879;28;46082;-68
2022/04/16 06:02:55;;;;;;;;;41.75;34.25;;;;;12.44;66.44;102487.56;5070217;28;45318;-68
2022/04/16 06:05:22;;;;;;;;;46.75;37.75;;;;;12.55;65.58;102491.31;5081480;28;45450;-68
2022/04/16 06:07:47;;;;;;;;;51.25;39.00;;;;;12.43;65.67;102488.53;5071090;28;45318;-68
2022/04/16 06:10:13;;;;;;;;;50.50;39.75;;;;;12.37;66.34;102490.88;5070994;28;45786;-68
2022/04/16 06:12:38;;;;;;;;;48.25;38.50;;;;;12.33;66.47;102498.44;5071143;28;45292;-68
2022/04/16 06:15:04;;;;;;;;;49.00;39.75;;;;;12.34;66.57;102500.16;5082431;28;45480;-70
2022/04/16 06:17:29;;;;;;;;;33.75;33.75;;;;;12.33;66.38;102503.88;5082034;28;45824;-69
2022/04/16 06:19:54;;;;;;;;;45.00;37.25;;;;;12.52;66.02;102497.88;5069783;27;45615;-70
2022/04/16 06:22:20;;;;;;;;;49.50;40.00;;;;;12.53;65.53;102496.00;5071431;28;45333;-69
2022/04/16 06:24:46;;;;;;;;;41.25;34.25;;;;;12.75;65.45;102499.69;5068557;28;45176;-69
2022/04/16 06:27:12;;;;;;;;;39.25;32.50;;;;;12.97;64.48;102504.31;5070819;27;45331;-69
2022/04/16 06:29:38;;;;;;;;;47.00;38.50;;;;;13.13;63.69;102501.28;5093751;27;45655;-68
2022/04/16 06:32:04;;;;;;;;;43.75;38.25;;;;;13.24;63.59;102510.34;5076910;27;45268;-70
2022/04/16 06:34:30;;;;;;;;;49.25;38.25;;;;;13.30;62.96;102503.50;5065202;28;45509;-69
2022/04/16 06:36:55;;;;;;;;;37.25;34.75;;;;;13.39;63.21;102502.78;5078061;27;45570;-69
2022/04/16 06:39:20;;;;;;;;;43.00;36.00;;;;;13.45;62.62;102504.13;5066327;27;45608;-69
2022/04/16 06:41:46;;;;;;;;;41.50;36.00;;;;;13.50;62.01;102493.72;5071100;28;45449;-69
2022/04/16 06:44:11;;;;;;;;;44.75;36.25;;;;;13.56;61.98;102493.22;5079998;28;45439;-69
2022/04/16 06:46:36;;;;;;;;;37.50;33.75;;;;;13.69;61.60;102510.31;5067008;28;45434;-71
2022/04/16 06:49:02;;;;;;;;;43.00;34.25;;;;;13.94;61.30;102506.44;5077772;28;47934;-70
2022/04/16 06:51:27;;;;;;;;;41.00;34.00;;;;;14.39;58.72;102504.50;5063664;28;45382;-71
2022/04/16 06:53:52;;;;;;;;;45.75;37.75;;;;;14.65;58.77;102496.78;5075450;28;45535;-71
2022/04/16 06:56:18;;;;;;;;;44.75;35.75;;;;;14.67;58.33;102501.13;5063550;28;45425;-71
2022/04/16 06:58:43;;;;;;;;;43.50;36.50;;;;;14.36;58.57;102496.50;5062091;28;45438;-69
2022/04/16 07:01:08;;;;;;;;;22.50;22.25;;;;;14.10;59.22;102492.38;5065483;28;45393;-69
2022/04/16 07:03:34;;;;;;;;;46.50;37.50;;;;;13.92;60.01;102494.78;5074206;28;45500;-69
2022/04/16 07:06:00;;;;;;;;;40.75;34.75;;;;;14.03;60.31;102498.34;5062148;28;45382;-69
2022/04/16 07:08:25;;;;;;;;;46.00;36.25;;;;;14.26;59.22;102495.53;5064356;28;45939;-70
2022/04/16 07:10:51;;;;;;;;;39.00;34.25;;;;;14.36;59.15;102491.03;5068348;28;45433;-69
2022/04/16 07:13:16;;;;;;;;;42.50;33.50;;;;;14.37;58.65;102490.03;5065343;28;45421;-70
2022/04/16 07:15:42;;;;;;;;;44.00;37.00;;;;;14.51;58.96;102484.28;5071524;28;45393;-69
2022/04/16 07:18:08;;;;;;;;;46.00;39.50;;;;;14.59;58.48;102492.69;5068174;28;46577;-69
2022/04/16 07:20:34;;;;;;;;;48.50;39.75;;;;;14.45;58.36;102495.75;5070851;28;45342;-69
2022/04/16 07:22:59;;;;;;;;;45.75;39.00;;;;;14.46;58.42;102494.75;5068178;28;45351;-69
2022/04/16 07:25:26;;;;;;;;;46.00;36.75;;;;;14.48;58.54;102500.94;5072271;28;45306;-69
2022/04/16 07:27:51;;;;;;;;;48.50;37.75;;;;;14.67;57.61;102492.03;5075054;27;48048;-69
2022/04/16 07:30:16;;;;;;;;;49.50;37.50;;;;;14.77;57.56;102492.97;5065234;28;45505;-69
2022/04/16 07:32:42;;;;;;;;;58.00;42.00;;;;;14.88;56.90;102497.50;5071234;28;45429;-69
2022/04/16 07:35:07;;;;;;;;;46.00;36.75;;;;;14.72;57.35;102492.50;5081274;28;45738;-70
2022/04/16 07:37:34;;;;;;;;;39.50;34.75;;;;;14.68;57.50;102488.31;5068623;28;47964;-69
2022/04/16 07:39:59;;;;;;;;;42.75;37.25;;;;;14.76;57.33;102485.75;5068383;28;45473;-69
2022/04/16 07:42:26;;;;;;;;;41.50;36.00;;;;;14.73;57.66;102496.97;5062919;27;45512;-70
2022/04/16 07:44:52;;;;;;;;;44.25;37.50;;;;;14.69;57.74;102492.75;5067606;28;45359;-70
2022/04/16 07:47:17;;;;;;;;;43.75;35.00;;;;;14.74;57.77;102495.97;5072523;28;47123;-70
2022/04/16 07:49:43;;;;;;;;;48.75;38.75;;;;;15.02;56.66;102499.91;5073641;28;45380;-69
2022/04/16 07:52:08;;;;;;;;;44.75;37.00;;;;;15.14;57.25;102507.03;5071533;28;45333;-68
2022/04/16 07:54:34;;;;;;;;;47.25;38.25;;;;;15.05;57.03;102497.75;5063924;28;45389;-69
2022/04/16 07:56:59;;;;;;;;;52.50;37.75;;;;;14.98;57.42;102509.38;5062441;28;46289;-69
2022/04/16 07:59:24;;;;;;;;;51.75;43.50;;;;;15.14;56.90;102510.63;5061878;28;45340;-69
2022/04/16 08:01:50;;;;;;;;;49.00;38.75;;;;;15.22;56.85;102509.97;5064575;28;45363;-69
2022/04/16 08:04:15;;;;;;;;;45.75;37.75;;;;;15.19;57.06;102508.34;5073540;28;45632;-69
2022/04/16 08:06:41;;;;;;;;;48.75;39.75;;;;;15.05;57.38;102488.69;5062689;28;45636;-69
2022/04/16 08:09:06;;;;;;;;;45.75;35.75;;;;;15.21;56.37;102513.69;5070088;28;45461;-70
2022/04/16 08:11:33;;;;;;;;;43.75;34.25;;;;;15.49;56.68;102507.50;5062379;28;45893;-70
2022/04/16 08:13:58;;;;;;;;;47.00;38.00;;;;;15.70;55.48;102512.09;5069856;28;45547;-70
2022/04/16 08:16:24;;;;;;;;;43.75;38.25;;;;;15.96;55.15;102516.06;5062375;28;45736;-70
2022/04/16 08:18:50;;;;;;;;;41.75;35.50;;;;;16.34;54.78;102518.00;5077808;28;45484;-70
2022/04/16 08:21:15;;;;;;;;;37.50;32.25;;;;;16.57;53.23;102519.47;5070069;28;45421;-70
2022/04/16 08:23:54;;;;;;;;;40.25;35.25;;;;;17.00;53.13;102520.91;5070021;28;45378;-70
2022/04/16 08:26:20;;;;;;;;;45.25;37.75;;;;;17.38;51.03;102508.94;5067015;28;48367;-70
2022/04/16 08:28:46;;;;;;;;;43.50;31.25;;;;;17.51;51.49;102515.84;5084315;27;45548;-71
2022/04/16 08:31:12;;;;;;;;;45.25;36.75;;;;;17.40;50.35;102509.63;5074277;27;45321;-70
2022/04/16 08:33:37;;;;;;;;;31.75;26.50;;;;;17.33;50.38;102519.50;5068968;28;45642;-71
2022/04/16 08:36:03;;;;;;;;;42.00;35.00;;;;;17.28;50.41;102519.97;5071045;28;46338;-70
2022/04/16 08:38:28;;;;;;;;;39.75;34.00;;;;;17.59;51.29;102508.72;5067585;28;45428;-71
2022/04/16 08:40:55;;;;;;;;;46.25;38.75;;;;;17.51;51.18;102521.31;5070392;28;45380;-71
2022/04/16 08:43:20;;;;;;;;;39.25;35.00;;;;;17.19;52.27;102522.72;5066351;28;45560;-70
2022/04/16 08:45:49;;;;;;;;;46.00;35.75;;;;;17.29;52.22;102521.69;5071698;28;46509;-70
2022/04/16 08:48:15;;;;;;;;;41.50;37.25;;;;;17.65;51.90;102517.25;5065379;28;45614;-70
2022/04/16 08:50:42;;;;;;;;;45.25;38.00;;;;;18.05;50.55;102518.75;5067805;28;45397;-71
2022/04/16 08:53:08;;;;;;;;;42.00;33.25;;;;;18.32;50.31;102509.63;5066495;28;45467;-70
2022/04/16 08:55:33;;;;;;;;;38.25;33.50;;;;;18.89;48.59;102513.78;5066938;28;45405;-70
2022/04/16 08:57:58;;;;;;;;;34.75;32.25;;;;;19.19;47.63;102518.84;5063371;28;45426;-71
2022/04/16 09:00:25;;;;;;;;;25.25;25.25;;;;;19.12;46.05;102526.00;5070590;28;45434;-70
2022/04/16 09:02:58;;;;;;;;;35.00;30.25;;;;;19.44;46.22;102526.22;5074315;28;45397;-71
2022/04/16 09:05:27;;;;;;;;;32.50;31.00;;;;;19.63;46.50;102529.81;5066658;28;45472;-71
2022/04/16 09:07:58;;;;;;;;;33.50;30.75;;;;;19.85;46.49;102525.59;5063843;28;45267;-71
2022/04/16 09:10:28;;;;;;;;;32.00;30.25;;;;;19.78;46.86;102523.50;5075382;28;45521;-71
2022/04/16 09:12:56;;;;;;;;;35.25;31.50;;;;;20.05;45.98;102527.03;5067662;28;45440;-71
2022/04/16 09:15:23;;;;;;;;;39.75;32.50;;;;;20.49;45.27;102523.06;5065017;28;45921;-70
2022/04/16 09:17:59;;;;;;;;;41.25;36.75;;;;;20.56;43.63;102523.22;5070141;28;45477;-70
2022/04/16 09:20:37;;;;;;;;;35.75;30.25;;;;;20.47;44.03;102519.59;5075227;28;45395;-70
2022/04/16 09:23:21;;;;;;;;;26.50;25.25;;;;;20.69;44.11;102512.53;5070991;28;45176;-70
2022/04/16 09:25:47;;;;;;;;;39.25;36.00;;;;;20.91;43.35;102508.22;5071797;28;45395;-70
2022/04/16 09:28:18;;;;;;;;;32.67;29.00;;;;;20.93;43.28;102509.78;5092534;27;45262;-70
2022/04/16 09:30:55;;;;;;;;;25.00;24.00;;;;;21.17;42.44;102494.25;5068662;28;45691;-70
2022/04/16 09:33:21;;;;;;;;;23.67;21.33;;;;;21.37;41.63;102509.41;5075681;27;45366;-70
2022/04/16 09:35:47;;;;;;;;;23.67;21.67;;;;;21.64;42.24;102494.25;5080013;27;45399;-71
2022/04/16 09:38:14;;;;;;;;;34.25;32.25;;;;;21.93;41.43;102496.38;5068740;28;45306;-71
2022/04/16 09:40:40;;;;;;;;;27.67;25.00;;;;;22.04;41.13;102498.78;5074414;28;45347;-71
2022/04/16 09:43:07;;;;;;;;;32.33;27.33;;;;;22.06;40.30;102502.25;5075655;28;45557;-71
2022/04/16 09:45:37;;;;;;;;;29.00;28.33;;;;;21.92;41.49;102495.50;5069560;28;48237;-71
2022/04/16 09:48:02;;;;;;;;;29.00;25.67;;;;;22.24;40.50;102493.66;5066546;28;45910;-71
2022/04/16 09:50:32;;;;;;;;;32.50;29.00;;;;;22.21;38.43;102494.88;5077353;28;45310;-71
2022/04/16 09:53:02;;;;;;;;;23.33;18.67;;;;;22.33;39.35;102493.41;5067182;28;45490;-71
2022/04/16 09:55:28;;;;;;;;;23.67;23.67;;;;;22.70;38.78;102489.00;5068618;28;45426;-71
2022/04/16 09:57:58;;;;;;;;;24.67;21.67;;;;;22.97;39.94;102496.72;5065171;28;45780;-69
2022/04/16 10:00:24;;;;;;;;;31.67;27.67;;;;;23.12;37.57;102483.75;5076841;28;45558;-69
2022/04/16 10:02:52;;;;;;;;;25.00;22.67;;;;;23.35;36.33;102488.38;5063201;28;45334;-69
2022/04/16 10:05:20;;;;;;;;;24.33;23.33;;;;;23.18;37.02;102494.09;5081323;28;46271;-69
2022/04/16 10:07:46;;;;;;;;;23.33;23.33;;;;;22.97;35.82;102490.31;5079280;28;45276;-68
2022/04/16 10:10:17;;;;;;;;;26.67;24.00;;;;;22.63;36.12;102488.00;5074957;28;45710;-69
2022/04/16 10:13:22;;;;;;;;;22.33;20.33;;;;;22.86;35.61;102491.66;5062871;28;45463;-69
2022/04/16 10:16:09;;;;;;;;;19.33;16.00;;;;;23.25;36.23;102485.88;5073074;27;46078;-69
2022/04/16 10:18:35;;;;;;;;;18.33;18.33;;;;;23.65;36.21;102495.69;5077812;27;45534;-70
2022/04/16 10:21:02;;;;;;;;;23.00;23.00;;;;;23.83;35.71;102493.38;5071750;27;45338;-70
2022/04/16 10:23:30;;;;;;;;;19.67;18.33;;;;;23.35;35.29;102496.69;5077846;28;45449;-70
2022/04/16 10:26:16;;;;;;;;;25.00;25.00;;;;;22.96;36.68;102483.91;5071488;28;45668;-70
2022/04/16 10:28:41;;;;;;;;;25.00;24.00;;;;;22.72;37.73;102497.97;5066924;27;45442;-70
2022/04/16 10:31:22;;;;;;;;;24.33;23.00;;;;;22.84;36.26;102490.97;5074842;28;45345;-70
2022/04/16 10:34:16;;;;;;;;;22.00;22.00;;;;;22.90;38.07;102482.78;5063077;28;45778;-70
2022/04/16 10:36:44;;;;;;;;;22.00;21.33;;;;;23.31;36.30;102476.78;5070031;28;48352;-70
2022/04/16 10:39:17;;;;;;;;;25.00;23.67;;;;;23.25;35.88;102472.00;5073852;28;45517;-70
2022/04/16 10:42:03;;;;;;;;;24.00;23.00;;;;;22.25;37.47;102484.31;5090555;27;45494;-70
2022/04/16 10:44:30;;;;;;;;;29.00;25.33;;;;;22.23;36.56;102478.94;5067630;28;45346;-70
2022/04/16 10:46:58;;;;;;;;;22.67;19.33;;;;;22.11;38.01;102483.19;5067814;28;46667;-71
2022/04/16 10:49:25;;;;;;;;;24.33;22.33;;;;;22.55;36.88;102483.41;5073545;28;45228;-71
2022/04/16 10:51:52;;;;;;;;;18.67;17.33;;;;;22.25;36.07;102474.09;5065778;28;45418;-71
2022/04/16 10:54:35;;;;;;;;;16.33;14.00;;;;;22.45;35.18;102486.41;5074942;28;45602;-72
2022/04/16 10:57:03;;;;;;;;;18.00;16.00;;;;;23.19;33.50;102486.63;5079967;28;48127;-71
2022/04/16 10:59:39;;;;;;;;;14.67;13.33;;;;;23.30;32.34;102477.88;5066160;28;45453;-71
2022/04/16 11:02:19;;;;;;;;;18.67;15.67;;;;;23.94;32.92;102481.78;5072618;28;45398;-71
2022/04/16 11:05:08;;;;;;;;;13.67;11.00;;;;;24.27;31.67;102478.53;5070165;27;45458;-71
2022/04/16 11:07:36;;;;;;;;;15.00;15.00;;;;;24.35;31.34;102475.66;5061922;28;48463;-71
2022/04/16 11:10:06;;;;;;;;;16.00;15.67;;;;;24.34;32.04;102476.69;5071650;28;45284;-71
2022/04/16 11:12:32;;;;;;;;;14.00;13.00;;;;;24.33;32.55;102472.19;5078985;28;45326;-71
2022/04/16 11:14:59;;;;;;;;;20.00;14.33;;;;;24.36;32.48;102471.81;5064385;28;45255;-72
2022/04/16 11:17:24;;;;;;;;;15.00;15.00;;;;;24.40;31.38;102467.59;5064226;28;45618;-72
2022/04/16 11:20:00;;;;;;;;;18.00;16.33;;;;;24.21;32.66;102462.66;5075721;28;45798;-71
2022/04/16 11:22:25;;;;;;;;;16.67;13.67;;;;;24.49;32.15;102463.59;5063332;28;45487;-72